FelLS Point — WDH5561 — position and weather

sailwx.info

Track history (hours):
 
Tides and Currents Weather Stations Pressure Air Temp Water Temp Dewpoint Dewpoint Depression Visibility Wind Speed Wind Dir Waves Ship Positions

FelLS Point

Owner: Vane Line Bunkering, Inc., Philadelphia, PA. More information available from US FCC via Universal Licensing System.

Last reported at 2017-Dec-17 00:30 UTC. Time now 2017-Dec-18 01:15 UTC.
Position N 40°59' W 073°54'.

Length 33 m; draft 4 m.

Type: Tug. MMSI: 303461000.

Date/timePositionNaut miles runAvg speedWind from/ knotsBaromVisibWave heightAir tempDewpointWater temp
2017-Dec-17 00:30N 40°59' W 073°54'4 8.7
2017-Dec-17 00:00N 40°55' W 073°55'4 8.7
2017-Dec-16 23:30N 40°51' W 073°57'4 8.5
2017-Dec-16 23:01N 40°47' W 073°60'4 8.0
2017-Dec-16 22:30N 40°43' W 074°01'4 7.8
2017-Dec-16 22:01N 40°40' W 074°03'3 6.8
2017-Dec-16 21:31N 40°39' W 074°07'3 6.6
2017-Dec-16 21:00N 40°38' W 074°12'3 6.4
2017-Dec-16 20:29N 40°35' W 074°13'3 2.4
2017-Dec-16 19:09N 40°32' W 074°15'0 0.1
2017-Dec-16 18:45N 40°32' W 074°15'6 0.4
2017-Dec-16 00:38N 40°38' W 074°12'1 8.2
2017-Dec-16 00:29N 40°39' W 074°10'5 9.7
2017-Dec-16 00:00N 40°39' W 074°04'3 6.5
2017-Dec-15 23:30N 40°40' W 074°00'0 0.0
2017-Dec-15 23:00N 40°40' W 074°00'0 0.0
2017-Dec-15 22:27N 40°40' W 074°00'0 0.0
2017-Dec-15 22:00N 40°40' W 074°00'0 0.0
2017-Dec-15 21:30N 40°40' W 074°00'0 0.0
2017-Dec-15 21:00N 40°40' W 074°00'0 0.0
2017-Dec-15 20:30N 40°40' W 074°00'0 0.0
2017-Dec-15 20:00N 40°40' W 074°00'0 0.0
2017-Dec-15 19:30N 40°40' W 074°00'0 0.0
2017-Dec-15 19:01N 40°40' W 074°00'0 0.5
2017-Dec-15 18:29N 40°40' W 074°00'0 0.0
2017-Dec-15 17:59N 40°40' W 074°00'0 0.0
2017-Dec-15 17:29N 40°40' W 074°00'0 0.0
2017-Dec-15 17:00N 40°40' W 074°00'3 6.5
2017-Dec-15 16:30N 40°39' W 074°05'510.2
2017-Dec-15 16:00N 40°39' W 074°11'4 7.2
2017-Dec-15 15:27N 40°35' W 074°13'2 4.1
2017-Dec-15 14:59N 40°33' W 074°14'0 0.3
2017-Dec-15 14:30N 40°33' W 074°15'1 0.1
2017-Dec-15 00:54N 40°32' W 074°15'12 1.9
2017-Dec-14 18:31N 40°40' W 074°02'5 9.4
2017-Dec-14 18:00N 40°44' W 073°58'1 2.5
2017-Dec-14 17:29N 40°44' W 073°56'0 0.1
2017-Dec-14 17:01N 40°44' W 073°57'0 0.0
2017-Dec-14 16:23N 40°44' W 073°57'0 0.0
2017-Dec-14 15:56N 40°44' W 073°57'0 0.0
2017-Dec-14 14:56N 40°44' W 073°57'0 0.0
2017-Dec-14 14:26N 40°44' W 073°57'0 0.0
2017-Dec-14 14:00N 40°44' W 073°57'0 0.0
2017-Dec-14 13:17N 40°44' W 073°57'0 0.0
2017-Dec-14 12:56N 40°44' W 073°57'0 0.0
2017-Dec-14 12:20N 40°44' W 073°57'0 0.0
2017-Dec-14 11:56N 40°44' W 073°57'0 0.0
2017-Dec-14 11:30N 40°44' W 073°57'1 1.5
2017-Dec-14 11:00N 40°44' W 073°57'3 6.9
2017-Dec-14 10:30N 40°42' W 074°00'3 6.9
2017-Dec-14 10:01N 40°40' W 074°04'0 0.2
2017-Dec-14 09:30N 40°40' W 074°04'0 0.0
2017-Dec-14 08:59N 40°40' W 074°04'0 0.0
2017-Dec-14 08:29N 40°40' W 074°04'0 0.0
2017-Dec-14 07:59N 40°40' W 074°04'0 0.0
2017-Dec-14 07:29N 40°40' W 074°04'0 0.0
2017-Dec-14 06:59N 40°40' W 074°04'0 0.0
2017-Dec-14 06:29N 40°40' W 074°04'0 0.0
2017-Dec-14 05:59N 40°40' W 074°04'0 0.0
2017-Dec-14 05:29N 40°40' W 074°04'0 0.0
2017-Dec-14 04:59N 40°40' W 074°04'0 0.0
2017-Dec-14 04:29N 40°40' W 074°04'0 0.0
2017-Dec-14 03:59N 40°40' W 074°04'0 0.0
2017-Dec-14 03:29N 40°40' W 074°04'0 0.0
2017-Dec-14 02:59N 40°40' W 074°04'0 0.0
2017-Dec-14 02:29N 40°40' W 074°04'0 0.0
2017-Dec-14 01:59N 40°40' W 074°04'0 0.0
2017-Dec-14 01:29N 40°40' W 074°04'0 0.0
2017-Dec-14 00:56N 40°40' W 074°04'0 0.0
2017-Dec-14 00:29N 40°40' W 074°04'0 0.0
2017-Dec-13 23:56N 40°40' W 074°04'0 0.0
2017-Dec-13 23:29N 40°40' W 074°04'0 0.0
2017-Dec-13 22:59N 40°40' W 074°04'0 0.0
2017-Dec-13 22:29N 40°40' W 074°04'0 0.0
2017-Dec-13 21:59N 40°40' W 074°04'0 0.0
2017-Dec-13 21:29N 40°40' W 074°04'0 0.0
2017-Dec-13 20:59N 40°40' W 074°04'0 0.0
2017-Dec-13 20:29N 40°40' W 074°04'0 0.0
2017-Dec-13 19:59N 40°40' W 074°04'0 0.0
2017-Dec-13 19:29N 40°40' W 074°04'0 0.0
2017-Dec-13 18:59N 40°40' W 074°04'0 0.0
2017-Dec-13 18:29N 40°40' W 074°04'0 0.0
2017-Dec-13 17:59N 40°40' W 074°04'0 0.0
2017-Dec-13 17:29N 40°40' W 074°04'0 0.0
2017-Dec-13 16:59N 40°40' W 074°04'0 0.0
2017-Dec-13 16:29N 40°40' W 074°04'0 0.0
2017-Dec-13 15:59N 40°40' W 074°04'0 0.0
2017-Dec-13 15:29N 40°40' W 074°04'0 0.0
2017-Dec-13 14:59N 40°40' W 074°04'0 0.0
2017-Dec-13 14:30N 40°40' W 074°04'0 0.0
2017-Dec-13 14:00N 40°40' W 074°04'0 0.0
2017-Dec-13 13:30N 40°40' W 074°04'0 0.0
2017-Dec-13 13:01N 40°40' W 074°04'0 0.0
2017-Dec-13 12:30N 40°40' W 074°04'0 0.0
2017-Dec-13 12:00N 40°40' W 074°04'0 0.0
2017-Dec-13 11:30N 40°40' W 074°04'0 0.0
2017-Dec-13 11:00N 40°40' W 074°04'0 0.0
2017-Dec-13 10:31N 40°40' W 074°04'0 0.0
2017-Dec-13 10:00N 40°40' W 074°04'0 0.0
2017-Dec-13 09:30N 40°40' W 074°04'0 0.0
2017-Dec-13 09:00N 40°40' W 074°04'0 0.0
2017-Dec-13 08:30N 40°40' W 074°04'0 0.0
2017-Dec-13 08:00N 40°40' W 074°04'0 0.0
2017-Dec-13 07:30N 40°40' W 074°04'0 0.0
2017-Dec-13 07:00N 40°40' W 074°04'0 0.0
2017-Dec-13 06:30N 40°40' W 074°04'1 1.2
2017-Dec-13 06:01N 40°39' W 074°04'3 6.6
2017-Dec-13 05:30N 40°39' W 074°08'3 6.4
2017-Dec-13 05:00N 40°37' W 074°12'4 0.3
2017-Dec-12 17:04N 40°33' W 074°15'0 0.8
2017-Dec-12 16:51N 40°33' W 074°14'2 4.8
2017-Dec-12 16:29N 40°34' W 074°13'2 3.2
2017-Dec-12 15:59N 40°36' W 074°12'3 5.8
2017-Dec-12 15:30N 40°39' W 074°11'5 9.3
2017-Dec-12 15:00N 40°39' W 074°05'4 8.0
2017-Dec-12 14:30N 40°40' W 074°00'0 0.0
2017-Dec-12 14:00N 40°40' W 074°00'0 0.0
2017-Dec-12 13:30N 40°40' W 074°00'0 0.0
2017-Dec-12 13:00N 40°40' W 074°00'0 0.0
2017-Dec-12 12:30N 40°40' W 074°00'0 0.0
2017-Dec-12 12:00N 40°40' W 074°00'0 0.0
2017-Dec-12 11:30N 40°40' W 074°00'0 0.0
2017-Dec-12 11:00N 40°40' W 074°00'0 0.0
2017-Dec-12 10:30N 40°40' W 074°00'0 0.0
2017-Dec-12 10:00N 40°40' W 074°00'0 0.0
2017-Dec-12 09:30N 40°40' W 074°00'0 0.0
2017-Dec-12 09:00N 40°40' W 074°00'0 0.0
2017-Dec-12 08:30N 40°40' W 074°00'0 0.0
2017-Dec-12 08:00N 40°40' W 074°00'0 0.0
2017-Dec-12 07:30N 40°40' W 074°00'0 0.0
2017-Dec-12 07:00N 40°40' W 074°00'4 7.1
2017-Dec-12 06:30N 40°39' W 074°05'4 6.9
2017-Dec-12 06:00N 40°39' W 074°09'3 6.5
2017-Dec-12 05:29N 40°36' W 074°12'0 0.4
2017-Dec-12 05:00N 40°36' W 074°12'2 4.7
2017-Dec-12 04:30N 40°38' W 074°12'3 5.6
2017-Dec-12 04:00N 40°39' W 074°08'3 6.9
2017-Dec-12 03:30N 40°39' W 074°04'4 8.0
2017-Dec-12 03:00N 40°43' W 074°01'4 7.7
2017-Dec-12 02:30N 40°47' W 073°60'4 7.9
2017-Dec-12 02:00N 40°50' W 073°57'3 6.4
2017-Dec-12 01:30N 40°53' W 073°56'4 7.9
2017-Dec-12 00:59N 40°57' W 073°54'  
2017-Dec-09 13:16N 40°58' W 073°54'2 5.8
2017-Dec-09 12:59N 40°57' W 073°54'3 5.9
2017-Dec-09 12:29N 40°54' W 073°55'3 5.7
2017-Dec-09 11:59N 40°51' W 073°57'3 5.5
2017-Dec-09 11:30N 40°49' W 073°58'3 5.5
2017-Dec-09 11:00N 40°46' W 073°60'3 6.0
2017-Dec-09 10:30N 40°44' W 074°01'3 6.4
2017-Dec-09 10:00N 40°41' W 074°03'4 7.6
2017-Dec-09 09:29N 40°39' W 074°07'3 7.1
2017-Dec-09 09:00N 40°38' W 074°12'3 5.8
2017-Dec-09 08:30N 40°35' W 074°12'0 0.6
2017-Dec-09 08:00N 40°35' W 074°13'0 0.0
2017-Dec-09 07:30N 40°35' W 074°13'0 0.0
2017-Dec-09 07:00N 40°35' W 074°13'0 0.0
2017-Dec-09 06:30N 40°35' W 074°13'0 0.0
2017-Dec-09 06:00N 40°35' W 074°13'0 0.0
2017-Dec-09 05:30N 40°35' W 074°13'0 0.0
2017-Dec-09 04:59N 40°35' W 074°13'0 0.0
2017-Dec-09 04:30N 40°35' W 074°13'0 0.0
2017-Dec-09 04:00N 40°35' W 074°13'0 0.0
2017-Dec-09 03:30N 40°35' W 074°13'0 0.0
2017-Dec-09 03:00N 40°35' W 074°13'0 0.0
2017-Dec-09 02:29N 40°35' W 074°13'0 0.0
2017-Dec-09 01:59N 40°35' W 074°13'0 0.0
2017-Dec-09 01:30N 40°35' W 074°13'0 0.0
2017-Dec-09 01:00N 40°35' W 074°13'0 0.0
2017-Dec-09 00:29N 40°35' W 074°13'0 0.0
2017-Dec-09 00:00N 40°35' W 074°13'0 0.0
2017-Dec-08 23:30N 40°35' W 074°13'0 0.0
2017-Dec-08 22:59N 40°35' W 074°13'0 0.0
2017-Dec-08 22:30N 40°35' W 074°13'0 0.0
2017-Dec-08 22:00N 40°35' W 074°13'0 0.0
2017-Dec-08 21:30N 40°35' W 074°13'0 0.0
2017-Dec-08 21:00N 40°35' W 074°13'0 0.0
2017-Dec-08 20:30N 40°35' W 074°13'0 0.0
2017-Dec-08 20:00N 40°35' W 074°13'0 0.0
2017-Dec-08 19:30N 40°35' W 074°13'0 0.0
2017-Dec-08 19:00N 40°35' W 074°13'1 2.4
2017-Dec-08 18:27N 40°34' W 074°13'1 0.2
2017-Dec-08 12:05N 40°33' W 074°14'0 2.4
2017-Dec-08 12:00N 40°34' W 074°14'0 0.0
2017-Dec-08 11:29N 40°34' W 074°14'0 0.0
2017-Dec-08 10:15N 40°34' W 074°14'0 0.0
2017-Dec-08 10:00N 40°34' W 074°14'0 0.0
2017-Dec-08 09:27N 40°34' W 074°14'0 0.0
2017-Dec-08 09:00N 40°34' W 074°14'0 0.0
2017-Dec-08 07:59N 40°34' W 074°14'0 0.0
2017-Dec-08 07:30N 40°34' W 074°14'1 2.3
2017-Dec-08 07:00N 40°34' W 074°13'4 8.7
2017-Dec-08 06:30N 40°38' W 074°12'4 7.9
2017-Dec-08 06:00N 40°39' W 074°07'4 8.0
2017-Dec-08 05:30N 40°39' W 074°02'1 2.8
2017-Dec-08 05:00N 40°40' W 074°00'0 0.0
2017-Dec-08 04:30N 40°40' W 074°00'0 0.0
2017-Dec-08 04:00N 40°40' W 074°00'0 0.0
2017-Dec-08 03:30N 40°40' W 074°00'0 0.0
2017-Dec-08 03:00N 40°40' W 074°00'0 0.0
2017-Dec-08 02:30N 40°40' W 074°00'0 0.0
2017-Dec-08 02:00N 40°40' W 074°00'0 0.0
2017-Dec-08 01:30N 40°40' W 074°00'0 0.0
2017-Dec-08 01:00N 40°40' W 074°00'0 0.0
2017-Dec-08 00:31N 40°40' W 074°00'4 8.1
2017-Dec-08 00:00N 40°39' W 074°05'5 9.1
2017-Dec-07 23:30N 40°39' W 074°11'4 8.7
2017-Dec-07 22:59N 40°34' W 074°13'2 2.8
2017-Dec-07 22:17N 40°33' W 074°15'1 0.0
2017-Dec-07 04:24N 40°32' W 074°15'1 1.6
2017-Dec-07 04:00N 40°33' W 074°15'3 6.7
2017-Dec-07 03:30N 40°36' W 074°12'3 6.8
2017-Dec-07 03:00N 40°39' W 074°11'4 8.8
2017-Dec-07 02:30N 40°39' W 074°05'3 7.0
2017-Dec-07 02:01N 40°42' W 074°02'4 7.0
2017-Dec-07 01:30N 40°45' W 074°01'4 7.6
2017-Dec-07 01:00N 40°48' W 073°58'4 8.4
2017-Dec-07 00:30N 40°52' W 073°56'  
Track history (hours):
 
Tides and Currents Weather Stations Pressure Air Temp Water Temp Dewpoint Dewpoint Depression Visibility Wind Speed Wind Dir Waves Ship Positions

FelLS Point

Owner: Vane Line Bunkering, Inc., Philadelphia, PA. More information available from US FCC via Universal Licensing System.

Last reported at 2017-Dec-17 00:30 UTC. Time now 2017-Dec-18 01:15 UTC.
Position N 40°59' W 073°54'.

Length 33 m; draft 4 m.

Type: Tug. MMSI: 303461000.

Date/timePositionNaut miles runAvg speedWind from/ knotsBaromVisibWave heightAir tempDewpointWater temp
2017-Dec-17 00:30N 40°59' W 073°54'4 8.7
2017-Dec-17 00:00N 40°55' W 073°55'4 8.7
2017-Dec-16 23:30N 40°51' W 073°57'4 8.5
2017-Dec-16 23:01N 40°47' W 073°60'4 8.0
2017-Dec-16 22:30N 40°43' W 074°01'4 7.8
2017-Dec-16 22:01N 40°40' W 074°03'3 6.8
2017-Dec-16 21:31N 40°39' W 074°07'3 6.6
2017-Dec-16 21:00N 40°38' W 074°12'3 6.4
2017-Dec-16 20:29N 40°35' W 074°13'3 2.4
2017-Dec-16 19:09N 40°32' W 074°15'0 0.1
2017-Dec-16 18:45N 40°32' W 074°15'6 0.4
2017-Dec-16 00:38N 40°38' W 074°12'1 8.2
2017-Dec-16 00:29N 40°39' W 074°10'5 9.7
2017-Dec-16 00:00N 40°39' W 074°04'3 6.5
2017-Dec-15 23:30N 40°40' W 074°00'0 0.0
2017-Dec-15 23:00N 40°40' W 074°00'0 0.0
2017-Dec-15 22:27N 40°40' W 074°00'0 0.0
2017-Dec-15 22:00N 40°40' W 074°00'0 0.0
2017-Dec-15 21:30N 40°40' W 074°00'0 0.0
2017-Dec-15 21:00N 40°40' W 074°00'0 0.0
2017-Dec-15 20:30N 40°40' W 074°00'0 0.0
2017-Dec-15 20:00N 40°40' W 074°00'0 0.0
2017-Dec-15 19:30N 40°40' W 074°00'0 0.0
2017-Dec-15 19:01N 40°40' W 074°00'0 0.5
2017-Dec-15 18:29N 40°40' W 074°00'0 0.0
2017-Dec-15 17:59N 40°40' W 074°00'0 0.0
2017-Dec-15 17:29N 40°40' W 074°00'0 0.0
2017-Dec-15 17:00N 40°40' W 074°00'3 6.5
2017-Dec-15 16:30N 40°39' W 074°05'510.2
2017-Dec-15 16:00N 40°39' W 074°11'4 7.2
2017-Dec-15 15:27N 40°35' W 074°13'2 4.1
2017-Dec-15 14:59N 40°33' W 074°14'0 0.3
2017-Dec-15 14:30N 40°33' W 074°15'1 0.1
2017-Dec-15 00:54N 40°32' W 074°15'12 1.9
2017-Dec-14 18:31N 40°40' W 074°02'5 9.4
2017-Dec-14 18:00N 40°44' W 073°58'1 2.5
2017-Dec-14 17:29N 40°44' W 073°56'0 0.1
2017-Dec-14 17:01N 40°44' W 073°57'0 0.0
2017-Dec-14 16:23N 40°44' W 073°57'0 0.0
2017-Dec-14 15:56N 40°44' W 073°57'0 0.0
2017-Dec-14 14:56N 40°44' W 073°57'0 0.0
2017-Dec-14 14:26N 40°44' W 073°57'0 0.0
2017-Dec-14 14:00N 40°44' W 073°57'0 0.0
2017-Dec-14 13:17N 40°44' W 073°57'0 0.0
2017-Dec-14 12:56N 40°44' W 073°57'0 0.0
2017-Dec-14 12:20N 40°44' W 073°57'0 0.0
2017-Dec-14 11:56N 40°44' W 073°57'0 0.0
2017-Dec-14 11:30N 40°44' W 073°57'1 1.5
2017-Dec-14 11:00N 40°44' W 073°57'3 6.9
2017-Dec-14 10:30N 40°42' W 074°00'3 6.9
2017-Dec-14 10:01N 40°40' W 074°04'0 0.2
2017-Dec-14 09:30N 40°40' W 074°04'0 0.0
2017-Dec-14 08:59N 40°40' W 074°04'0 0.0
2017-Dec-14 08:29N 40°40' W 074°04'0 0.0
2017-Dec-14 07:59N 40°40' W 074°04'0 0.0
2017-Dec-14 07:29N 40°40' W 074°04'0 0.0
2017-Dec-14 06:59N 40°40' W 074°04'0 0.0
2017-Dec-14 06:29N 40°40' W 074°04'0 0.0
2017-Dec-14 05:59N 40°40' W 074°04'0 0.0
2017-Dec-14 05:29N 40°40' W 074°04'0 0.0
2017-Dec-14 04:59N 40°40' W 074°04'0 0.0
2017-Dec-14 04:29N 40°40' W 074°04'0 0.0
2017-Dec-14 03:59N 40°40' W 074°04'0 0.0
2017-Dec-14 03:29N 40°40' W 074°04'0 0.0
2017-Dec-14 02:59N 40°40' W 074°04'0 0.0
2017-Dec-14 02:29N 40°40' W 074°04'0 0.0
2017-Dec-14 01:59N 40°40' W 074°04'0 0.0
2017-Dec-14 01:29N 40°40' W 074°04'0 0.0
2017-Dec-14 00:56N 40°40' W 074°04'0 0.0
2017-Dec-14 00:29N 40°40' W 074°04'0 0.0
2017-Dec-13 23:56N 40°40' W 074°04'0 0.0
2017-Dec-13 23:29N 40°40' W 074°04'0 0.0
2017-Dec-13 22:59N 40°40' W 074°04'0 0.0
2017-Dec-13 22:29N 40°40' W 074°04'0 0.0
2017-Dec-13 21:59N 40°40' W 074°04'0 0.0
2017-Dec-13 21:29N 40°40' W 074°04'0 0.0
2017-Dec-13 20:59N 40°40' W 074°04'0 0.0
2017-Dec-13 20:29N 40°40' W 074°04'0 0.0
2017-Dec-13 19:59N 40°40' W 074°04'0 0.0
2017-Dec-13 19:29N 40°40' W 074°04'0 0.0
2017-Dec-13 18:59N 40°40' W 074°04'0 0.0
2017-Dec-13 18:29N 40°40' W 074°04'0 0.0
2017-Dec-13 17:59N 40°40' W 074°04'0 0.0
2017-Dec-13 17:29N 40°40' W 074°04'0 0.0
2017-Dec-13 16:59N 40°40' W 074°04'0 0.0
2017-Dec-13 16:29N 40°40' W 074°04'0 0.0
2017-Dec-13 15:59N 40°40' W 074°04'0 0.0
2017-Dec-13 15:29N 40°40' W 074°04'0 0.0
2017-Dec-13 14:59N 40°40' W 074°04'0 0.0
2017-Dec-13 14:30N 40°40' W 074°04'0 0.0
2017-Dec-13 14:00N 40°40' W 074°04'0 0.0
2017-Dec-13 13:30N 40°40' W 074°04'0 0.0
2017-Dec-13 13:01N 40°40' W 074°04'0 0.0
2017-Dec-13 12:30N 40°40' W 074°04'0 0.0
2017-Dec-13 12:00N 40°40' W 074°04'0 0.0
2017-Dec-13 11:30N 40°40' W 074°04'0 0.0
2017-Dec-13 11:00N 40°40' W 074°04'0 0.0
2017-Dec-13 10:31N 40°40' W 074°04'0 0.0
2017-Dec-13 10:00N 40°40' W 074°04'0 0.0
2017-Dec-13 09:30N 40°40' W 074°04'0 0.0
2017-Dec-13 09:00N 40°40' W 074°04'0 0.0
2017-Dec-13 08:30N 40°40' W 074°04'0 0.0
2017-Dec-13 08:00N 40°40' W 074°04'0 0.0
2017-Dec-13 07:30N 40°40' W 074°04'0 0.0
2017-Dec-13 07:00N 40°40' W 074°04'0 0.0
2017-Dec-13 06:30N 40°40' W 074°04'1 1.2
2017-Dec-13 06:01N 40°39' W 074°04'3 6.6
2017-Dec-13 05:30N 40°39' W 074°08'3 6.4
2017-Dec-13 05:00N 40°37' W 074°12'4 0.3
2017-Dec-12 17:04N 40°33' W 074°15'0 0.8
2017-Dec-12 16:51N 40°33' W 074°14'2 4.8
2017-Dec-12 16:29N 40°34' W 074°13'2 3.2
2017-Dec-12 15:59N 40°36' W 074°12'3 5.8
2017-Dec-12 15:30N 40°39' W 074°11'5 9.3
2017-Dec-12 15:00N 40°39' W 074°05'4 8.0
2017-Dec-12 14:30N 40°40' W 074°00'0 0.0
2017-Dec-12 14:00N 40°40' W 074°00'0 0.0
2017-Dec-12 13:30N 40°40' W 074°00'0 0.0
2017-Dec-12 13:00N 40°40' W 074°00'0 0.0
2017-Dec-12 12:30N 40°40' W 074°00'0 0.0
2017-Dec-12 12:00N 40°40' W 074°00'0 0.0
2017-Dec-12 11:30N 40°40' W 074°00'0 0.0
2017-Dec-12 11:00N 40°40' W 074°00'0 0.0
2017-Dec-12 10:30N 40°40' W 074°00'0 0.0
2017-Dec-12 10:00N 40°40' W 074°00'0 0.0
2017-Dec-12 09:30N 40°40' W 074°00'0 0.0
2017-Dec-12 09:00N 40°40' W 074°00'0 0.0
2017-Dec-12 08:30N 40°40' W 074°00'0 0.0
2017-Dec-12 08:00N 40°40' W 074°00'0 0.0
2017-Dec-12 07:30N 40°40' W 074°00'0 0.0
2017-Dec-12 07:00N 40°40' W 074°00'4 7.1
2017-Dec-12 06:30N 40°39' W 074°05'4 6.9
2017-Dec-12 06:00N 40°39' W 074°09'3 6.5
2017-Dec-12 05:29N 40°36' W 074°12'0 0.4
2017-Dec-12 05:00N 40°36' W 074°12'2 4.7
2017-Dec-12 04:30N 40°38' W 074°12'3 5.6
2017-Dec-12 04:00N 40°39' W 074°08'3 6.9
2017-Dec-12 03:30N 40°39' W 074°04'4 8.0
2017-Dec-12 03:00N 40°43' W 074°01'4 7.7
2017-Dec-12 02:30N 40°47' W 073°60'4 7.9
2017-Dec-12 02:00N 40°50' W 073°57'3 6.4
2017-Dec-12 01:30N 40°53' W 073°56'4 7.9
2017-Dec-12 00:59N 40°57' W 073°54'  
2017-Dec-09 13:16N 40°58' W 073°54'2 5.8
2017-Dec-09 12:59N 40°57' W 073°54'3 5.9
2017-Dec-09 12:29N 40°54' W 073°55'3 5.7
2017-Dec-09 11:59N 40°51' W 073°57'3 5.5
2017-Dec-09 11:30N 40°49' W 073°58'3 5.5
2017-Dec-09 11:00N 40°46' W 073°60'3 6.0
2017-Dec-09 10:30N 40°44' W 074°01'3 6.4
2017-Dec-09 10:00N 40°41' W 074°03'4 7.6
2017-Dec-09 09:29N 40°39' W 074°07'3 7.1
2017-Dec-09 09:00N 40°38' W 074°12'3 5.8
2017-Dec-09 08:30N 40°35' W 074°12'0 0.6
2017-Dec-09 08:00N 40°35' W 074°13'0 0.0
2017-Dec-09 07:30N 40°35' W 074°13'0 0.0
2017-Dec-09 07:00N 40°35' W 074°13'0 0.0
2017-Dec-09 06:30N 40°35' W 074°13'0 0.0
2017-Dec-09 06:00N 40°35' W 074°13'0 0.0
2017-Dec-09 05:30N 40°35' W 074°13'0 0.0
2017-Dec-09 04:59N 40°35' W 074°13'0 0.0
2017-Dec-09 04:30N 40°35' W 074°13'0 0.0
2017-Dec-09 04:00N 40°35' W 074°13'0 0.0
2017-Dec-09 03:30N 40°35' W 074°13'0 0.0
2017-Dec-09 03:00N 40°35' W 074°13'0 0.0
2017-Dec-09 02:29N 40°35' W 074°13'0 0.0
2017-Dec-09 01:59N 40°35' W 074°13'0 0.0
2017-Dec-09 01:30N 40°35' W 074°13'0 0.0
2017-Dec-09 01:00N 40°35' W 074°13'0 0.0
2017-Dec-09 00:29N 40°35' W 074°13'0 0.0
2017-Dec-09 00:00N 40°35' W 074°13'0 0.0
2017-Dec-08 23:30N 40°35' W 074°13'0 0.0
2017-Dec-08 22:59N 40°35' W 074°13'0 0.0
2017-Dec-08 22:30N 40°35' W 074°13'0 0.0
2017-Dec-08 22:00N 40°35' W 074°13'0 0.0
2017-Dec-08 21:30N 40°35' W 074°13'0 0.0
2017-Dec-08 21:00N 40°35' W 074°13'0 0.0
2017-Dec-08 20:30N 40°35' W 074°13'0 0.0
2017-Dec-08 20:00N 40°35' W 074°13'0 0.0
2017-Dec-08 19:30N 40°35' W 074°13'0 0.0
2017-Dec-08 19:00N 40°35' W 074°13'1 2.4
2017-Dec-08 18:27N 40°34' W 074°13'1 0.2
2017-Dec-08 12:05N 40°33' W 074°14'0 2.4
2017-Dec-08 12:00N 40°34' W 074°14'0 0.0
2017-Dec-08 11:29N 40°34' W 074°14'0 0.0
2017-Dec-08 10:15N 40°34' W 074°14'0 0.0
2017-Dec-08 10:00N 40°34' W 074°14'0 0.0
2017-Dec-08 09:27N 40°34' W 074°14'0 0.0
2017-Dec-08 09:00N 40°34' W 074°14'0 0.0
2017-Dec-08 07:59N 40°34' W 074°14'0 0.0
2017-Dec-08 07:30N 40°34' W 074°14'1 2.3
2017-Dec-08 07:00N 40°34' W 074°13'4 8.7
2017-Dec-08 06:30N 40°38' W 074°12'4 7.9
2017-Dec-08 06:00N 40°39' W 074°07'4 8.0
2017-Dec-08 05:30N 40°39' W 074°02'1 2.8
2017-Dec-08 05:00N 40°40' W 074°00'0 0.0
2017-Dec-08 04:30N 40°40' W 074°00'0 0.0
2017-Dec-08 04:00N 40°40' W 074°00'0 0.0
2017-Dec-08 03:30N 40°40' W 074°00'0 0.0
2017-Dec-08 03:00N 40°40' W 074°00'0 0.0
2017-Dec-08 02:30N 40°40' W 074°00'0 0.0
2017-Dec-08 02:00N 40°40' W 074°00'0 0.0
2017-Dec-08 01:30N 40°40' W 074°00'0 0.0
2017-Dec-08 01:00N 40°40' W 074°00'0 0.0
2017-Dec-08 00:31N 40°40' W 074°00'4 8.1
2017-Dec-08 00:00N 40°39' W 074°05'5 9.1
2017-Dec-07 23:30N 40°39' W 074°11'4 8.7
2017-Dec-07 22:59N 40°34' W 074°13'2 2.8
2017-Dec-07 22:17N 40°33' W 074°15'1 0.0
2017-Dec-07 04:24N 40°32' W 074°15'1 1.6
2017-Dec-07 04:00N 40°33' W 074°15'3 6.7
2017-Dec-07 03:30N 40°36' W 074°12'3 6.8
2017-Dec-07 03:00N 40°39' W 074°11'4 8.8
2017-Dec-07 02:30N 40°39' W 074°05'3 7.0
2017-Dec-07 02:01N 40°42' W 074°02'4 7.0
2017-Dec-07 01:30N 40°45' W 074°01'4 7.6
2017-Dec-07 01:00N 40°48' W 073°58'4 8.4
2017-Dec-07 00:30N 40°52' W 073°56'  

Dump ship's entire track history